Accueil
METAR-TAF:

METAR-TAF

Aéroports :

Aéroport de Marrakech-Ménara

Marrakech, Maroc

latitude: 31-37N, longitude: 008-02W, altitude: 468 m

Observation

Le bulletin a été fait il y a 26 minutes, à 11:30 UTC
Température
Pression
Visibilité 10 km ou plus
pas de nuages en-dessous de 1500 mètres et pas de cumulonimbus.

METAR: GMMX 161130Z /////KT CAVOK ///// Q//// NOSIG

Heure: 12:56 (11:56 UTC)

Prévision

Le bulletin a été fait il y a 56 minutes, à 11:00 UTC
Prévision valable du 16 à 12 UTC au 17 à 18 UTC
Vent 6 kt de ouest
Visibilité: 8000 m

TAF: GMMX 161100Z 1612/1718 28006KT 8000 NSC

Observations et prévisions météorologiques de plus de 4000 aéroports (messages METAR et TAF).

Les stations disponibles sont représentées par des disques jaunes et rouges sur la carte.

Passer la souris dessus pour voir le nom de la station.

Cliquer dessus pour voir les observations et prévisions météorologiques.

Pour changer de carte: cliquez sur les boutons verts avec une croix noire pour zoomer, sur le bouton vert avec un tiret pour effectuer un zoom arrière, ou sur les flèches vertes pour les cartes adjacentes.


METAR-TAF: